Ldhl, Florida
Current Conditions -  °F | °C
As of 9:41 AM on Saturday 22 Nov 2014 (Local Time) from KFXE Reporting Station
Overcast Overcast  
Wind Chill: 77°   Ceiling: 2600
Heat Index: 79°   Visibility: 10mi
Dew Point: 68°   Wind: 24mph
Humidity: 74%   Direction: 80°E
Pressure: 30.19"   Gusts: 30mph
Location:  26.1819°N, 80.2274°W
Report Text: KFXE 221441Z 08021G26KT 10SM BKN026 OVC036 25/20 A3019 RMK AO2 PK WND 08027/1428 RAB31E41 P0000 T02500200
Loading
Personal Weather Stations






























Interactive Weather Map New forecast layout! Learn more

10-Day Weather Forecast

Advertisements
Track Severe Weather on mobile